Dades meteomassalio
Diari Summary for Gener 7, 2017 Units:  Metric    English   Both
« Previous Day
Next Day »
Diari Semanal Mensual Anual Personalitzat
  Maxima: Minima: Mijana:
Temperatura: 10.3 °C -3.7 °C 1.3 °C
Rosada: -0.8 °C -5.9 °C -4.1 °C
Humitat: 88 % 33 % 71 %
Velocitat del vent: 0.0 km/h 0.0 km/h 0 km/h
Racha vent: 0.0 km/h - -
Vent:- - North
Pressio: 1034.1 hPa 1031.0 hPa -
Pluja: 0.0 mm    
Historical Graphs
 
 
Tabular Data for Gener 7, 2017
Time Temperature Dew Point Pressure Wind Wind Speed Wind Gust Humidity Rainfall Rate (Hourly) solar Conditions
00:04 -2.5 °C -4.5 °C 1032.7 hPa Calm     86 % 0.0 mm 0.0 W/m2 CLR
00:09 -2.6 °C -4.6 °C 1032.7 hPa Calm     86 % 0.0 mm 0.0 W/m2 CLR
00:14 -2.7 °C -4.7 °C 1032.7 hPa Calm     86 % 0.0 mm 0.0 W/m2 CLR
00:20 -2.7 °C -4.6 °C 1032.4 hPa Calm     87 % 0.0 mm 0.0 W/m2 CLR
00:25 -2.7 °C -4.6 °C 1032.4 hPa Calm     87 % 0.0 mm 0.0 W/m2 CLR
00:30 -2.4 °C -4.3 °C 1032.4 hPa Calm     87 % 0.0 mm 0.0 W/m2 CLR
00:35 -2.4 °C -4.4 °C 1032.4 hPa Calm     86 % 0.0 mm 0.0 W/m2 CLR
00:40 -2.4 °C -4.4 °C 1032.4 hPa Calm     86 % 0.0 mm 0.0 W/m2 CLR
00:45 -2.4 °C -4.4 °C 1032.4 hPa Calm     86 % 0.0 mm 0.0 W/m2 CLR
00:50 -2.4 °C -4.4 °C 1032.4 hPa Calm     86 % 0.0 mm 0.0 W/m2 CLR
00:55 -2.4 °C -4.4 °C 1032.4 hPa Calm     86 % 0.0 mm 0.0 W/m2 CLR
01:00 -2.3 °C -4.3 °C 1032.4 hPa Calm     86 % 0.0 mm 0.0 W/m2 CLR
01:05 -2.4 °C -4.6 °C 1032.4 hPa Calm     85 % 0.0 mm 0.0 W/m2 CLR
01:10 -2.4 °C -4.6 °C 1032.4 hPa Calm     85 % 0.0 mm 0.0 W/m2 CLR
01:15 -2.5 °C -4.5 °C 1032.4 hPa Calm     86 % 0.0 mm 0.0 W/m2 CLR
01:20 -2.5 °C -4.5 °C 1032.4 hPa Calm     86 % 0.0 mm 0.0 W/m2 CLR
01:25 -2.6 °C -4.6 °C 1032.1 hPa Calm     86 % 0.0 mm 0.0 W/m2 CLR
01:30 -2.6 °C -4.6 °C 1032.4 hPa Calm     86 % 0.0 mm 0.0 W/m2 CLR
01:35 -2.6 °C -4.6 °C 1032.1 hPa Calm     86 % 0.0 mm 0.0 W/m2 CLR
01:40 -2.7 °C -4.7 °C 1032.4 hPa Calm     86 % 0.0 mm 0.0 W/m2 CLR
01:45 -2.8 °C -4.8 °C 1032.1 hPa Calm     86 % 0.0 mm 0.0 W/m2 CLR
01:50 -2.7 °C -4.6 °C 1032.1 hPa Calm     87 % 0.0 mm 0.0 W/m2 CLR
01:55 -2.6 °C -4.6 °C 1032.1 hPa Calm     86 % 0.0 mm 0.0 W/m2 CLR
02:00 -2.5 °C -4.5 °C 1032.1 hPa Calm     86 % 0.0 mm 0.0 W/m2 CLR
02:05 -2.3 °C -4.3 °C 1032.1 hPa Calm     86 % 0.0 mm 0.0 W/m2 CLR
02:10 -2.2 °C -4.4 °C 1032.1 hPa Calm     85 % 0.0 mm 0.0 W/m2 CLR
02:15 -2.3 °C -4.5 °C 1032.1 hPa Calm     85 % 0.0 mm 0.0 W/m2 CLR
02:20 -2.4 °C -4.6 °C 1032.1 hPa Calm     85 % 0.0 mm 0.0 W/m2 CLR
02:25 -2.6 °C -4.7 °C 1032.1 hPa Calm     85 % 0.0 mm 0.0 W/m2 CLR
02:30 -2.5 °C -4.5 °C 1032.1 hPa Calm     86 % 0.0 mm 0.0 W/m2 CLR
02:35 -2.6 °C -4.7 °C 1032.4 hPa Calm     85 % 0.0 mm 0.0 W/m2 CLR
02:40 -2.7 °C -4.9 °C 1032.4 hPa Calm     85 % 0.0 mm 0.0 W/m2 CLR
02:45 -2.7 °C -4.7 °C 1032.4 hPa Calm     86 % 0.0 mm 0.0 W/m2 CLR
02:50 -2.7 °C -4.7 °C 1032.4 hPa Calm     86 % 0.0 mm 0.0 W/m2 CLR
02:55 -2.6 °C -4.6 °C 1032.4 hPa Calm     86 % 0.0 mm 0.0 W/m2 CLR
03:00 -2.5 °C -4.5 °C 1032.4 hPa Calm     86 % 0.0 mm 0.0 W/m2 CLR
03:05 -2.5 °C -4.5 °C 1032.4 hPa Calm     86 % 0.0 mm 0.0 W/m2 CLR
03:10 -2.6 °C -4.6 °C 1032.4 hPa Calm     86 % 0.0 mm 0.0 W/m2 CLR
03:15 -2.6 °C -4.6 °C 1032.4 hPa Calm     86 % 0.0 mm 0.0 W/m2 CLR
03:20 -2.6 °C -4.6 °C 1032.4 hPa Calm     86 % 0.0 mm 0.0 W/m2 CLR
03:25 -2.4 °C -4.3 °C 1032.4 hPa Calm     87 % 0.0 mm 0.0 W/m2 CLR
03:30 -2.2 °C -4.2 °C 1032.4 hPa Calm     86 % 0.0 mm 0.0 W/m2 CLR
03:35 -2.2 °C -4.3 °C 1032.4 hPa Calm     85 % 0.0 mm 0.0 W/m2 CLR
03:40 -2.2 °C -4.4 °C 1032.4 hPa Calm     85 % 0.0 mm 0.0 W/m2 CLR
03:45 -2.3 °C -4.5 °C 1032.4 hPa Calm     85 % 0.0 mm 0.0 W/m2 CLR
03:50 -2.4 °C -4.4 °C 1032.4 hPa Calm     86 % 0.0 mm 0.0 W/m2 CLR
03:55 -2.4 °C -4.6 °C 1032.4 hPa Calm     85 % 0.0 mm 0.0 W/m2 CLR
04:00 -2.6 °C -4.8 °C 1032.4 hPa Calm     85 % 0.0 mm 0.0 W/m2 CLR
04:05 -2.7 °C -4.7 °C 1032.4 hPa Calm     86 % 0.0 mm 0.0 W/m2 CLR
04:10 -2.7 °C -4.7 °C 1032.4 hPa Calm     86 % 0.0 mm 0.0 W/m2 CLR
04:15 -2.8 °C -4.8 °C 1032.4 hPa Calm     86 % 0.0 mm 0.0 W/m2 CLR
04:20 -2.7 °C -4.6 °C 1032.4 hPa Calm     87 % 0.0 mm 0.0 W/m2 CLR
04:25 -2.8 °C -4.7 °C 1032.4 hPa Calm     87 % 0.0 mm 0.0 W/m2 CLR
04:30 -2.9 °C -4.8 °C 1032.4 hPa Calm     87 % 0.0 mm 0.0 W/m2 CLR
04:35 -2.8 °C -4.7 °C 1032.4 hPa Calm     87 % 0.0 mm 0.0 W/m2 CLR
04:40 -2.7 °C -4.6 °C 1032.4 hPa Calm     87 % 0.0 mm 0.0 W/m2 CLR
04:45 -2.6 °C -4.5 °C 1032.4 hPa Calm     87 % 0.0 mm 0.0 W/m2 CLR
04:50 -2.6 °C -4.6 °C 1032.4 hPa Calm     86 % 0.0 mm 0.0 W/m2 CLR
04:55 -2.6 °C -4.6 °C 1032.4 hPa Calm     86 % 0.0 mm 0.0 W/m2 CLR
05:00 -2.6 °C -4.6 °C 1032.4 hPa Calm     86 % 0.0 mm 0.0 W/m2 CLR
05:05 -2.7 °C -4.7 °C 1032.4 hPa Calm     86 % 0.0 mm 0.0 W/m2 CLR
05:10 -2.7 °C -4.7 °C 1032.4 hPa Calm     86 % 0.0 mm 0.0 W/m2 CLR
05:15 -2.7 °C -4.7 °C 1032.4 hPa Calm     86 % 0.0 mm 0.0 W/m2 CLR
05:20 -2.7 °C -4.6 °C 1032.4 hPa Calm     87 % 0.0 mm 0.0 W/m2 CLR
05:25 -2.7 °C -4.6 °C 1032.4 hPa Calm     87 % 0.0 mm 0.0 W/m2 CLR
05:30 -2.6 °C -4.4 °C 1032.4 hPa Calm     87 % 0.0 mm 0.0 W/m2 CLR
05:36 -2.6 °C -4.6 °C 1032.4 hPa Calm     86 % 0.0 mm 0.0 W/m2 CLR
05:41 -2.6 °C -4.6 °C 1032.4 hPa Calm     86 % 0.0 mm 0.0 W/m2 CLR
05:46 -2.7 °C -4.7 °C 1032.4 hPa Calm     86 % 0.0 mm 0.0 W/m2 CLR
05:51 -2.8 °C -4.8 °C 1032.4 hPa Calm     86 % 0.0 mm 0.0 W/m2 CLR
05:56 -2.7 °C -4.7 °C 1032.4 hPa Calm     86 % 0.0 mm 0.0 W/m2 CLR
06:01 -2.7 °C -4.7 °C 1032.4 hPa Calm     86 % 0.0 mm 0.0 W/m2 CLR
06:06 -2.8 °C -4.8 °C 1032.4 hPa Calm     86 % 0.0 mm 0.0 W/m2 CLR
06:11 -2.8 °C -4.8 °C 1032.4 hPa Calm     86 % 0.0 mm 0.0 W/m2 CLR
06:16 -2.9 °C -4.9 °C 1032.4 hPa Calm     86 % 0.0 mm 0.0 W/m2 CLR
06:21 -3.1 °C -5.1 °C 1032.4 hPa Calm     86 % 0.0 mm 0.0 W/m2 CLR
06:26 -3.1 °C -4.9 °C 1032.4 hPa Calm     87 % 0.0 mm 0.0 W/m2 CLR
06:31 -3.3 °C -5.3 °C 1032.4 hPa Calm     86 % 0.0 mm 0.0 W/m2 CLR
06:36 -3.4 °C -5.2 °C 1032.4 hPa Calm     87 % 0.0 mm 0.0 W/m2 CLR
06:41 -3.4 °C -5.3 °C 1032.4 hPa Calm     87 % 0.0 mm 0.0 W/m2 CLR
06:46 -3.5 °C -5.2 °C 1032.4 hPa Calm     88 % 0.0 mm 0.0 W/m2 CLR
06:51 -3.5 °C -5.2 °C 1032.4 hPa Calm     88 % 0.0 mm 0.0 W/m2 CLR
06:56 -3.5 °C -5.2 °C 1032.4 hPa Calm     88 % 0.0 mm 0.0 W/m2 CLR
07:01 -3.4 °C -5.2 °C 1032.4 hPa Calm     88 % 0.0 mm 0.0 W/m2 CLR
07:06 -3.4 °C -5.1 °C 1032.7 hPa Calm     88 % 0.0 mm 0.0 W/m2 CLR
07:11 -3.3 °C -5.2 °C 1032.7 hPa Calm     87 % 0.0 mm 0.0 W/m2 CLR
07:16 -3.3 °C -5.2 °C 1032.7 hPa Calm     87 % 0.0 mm 0.0 W/m2 CLR
07:21 -3.4 °C -5.3 °C 1032.7 hPa Calm     87 % 0.0 mm 0.0 W/m2 CLR
07:26 -3.5 °C -5.3 °C 1032.7 hPa Calm     87 % 0.0 mm 0.0 W/m2 CLR
07:31 -3.5 °C -5.3 °C 1032.7 hPa Calm     87 % 0.0 mm 0.0 W/m2 CLR
07:36 -3.6 °C -5.4 °C 1032.7 hPa Calm     87 % 0.0 mm 0.0 W/m2 CLR
07:41 -3.7 °C -5.5 °C 1032.7 hPa Calm     87 % 0.0 mm 0.0 W/m2 CLR
07:46 -3.7 °C -5.6 °C 1032.7 hPa Calm     87 % 0.0 mm 0.0 W/m2 CLR
07:51 -3.7 °C -5.6 °C 1033.1 hPa Calm     87 % 0.0 mm 0.0 W/m2 CLR
07:56 -3.7 °C -5.5 °C 1033.1 hPa Calm     87 % 0.0 mm 0.0 W/m2 CLR
08:01 -3.7 °C -5.5 °C 1033.1 hPa Calm     87 % 0.0 mm 0.0 W/m2 CLR
08:06 -3.6 °C -5.3 °C 1033.1 hPa Calm     88 % 0.0 mm 0.0 W/m2 CLR
08:11 -3.4 °C -5.2 °C 1033.1 hPa Calm     87 % 0.0 mm 0.0 W/m2 CLR
08:16 -3.2 °C -5.2 °C 1033.1 hPa Calm     86 % 0.0 mm 0.0 W/m2 CLR
08:21 -3.0 °C -5.0 °C 1033.1 hPa Calm     86 % 0.0 mm 0.0 W/m2 CLR
08:26 -2.9 °C -5.1 °C 1033.1 hPa Calm     85 % 0.0 mm 0.0 W/m2 OVC
08:31 -3.2 °C -5.5 °C 1033.4 hPa Calm     84 % 0.0 mm 5.0 W/m2 BKN
08:36 -3.4 °C -5.6 °C 1033.1 hPa Calm     85 % 0.0 mm 9.0 W/m2 BKN
08:41 -3.4 °C -5.6 °C 1033.1 hPa Calm     85 % 0.0 mm 12.0 W/m2 BKN
08:46 -3.3 °C -5.3 °C 1033.4 hPa Calm     86 % 0.0 mm 14.0 W/m2 BKN
08:51 -3.0 °C -5.0 °C 1033.4 hPa Calm     86 % 0.0 mm 18.0 W/m2 BKN
08:56 -2.8 °C -4.9 °C 1033.4 hPa Calm     85 % 0.0 mm 26.0 W/m2 BKN
09:01 -2.7 °C -5.0 °C 1033.4 hPa Calm     84 % 0.0 mm 37.0 W/m2 BKN
09:06 -2.4 °C -4.8 °C 1033.4 hPa Calm     84 % 0.0 mm 44.0 W/m2 BKN
09:11 -2.1 °C -4.4 °C 1033.4 hPa Calm     84 % 0.0 mm 62.0 W/m2 BKN
09:16 -1.6 °C -4.3 °C 1033.4 hPa Calm     82 % 0.0 mm 65.0 W/m2 BKN
09:21 -1.4 °C -4.1 °C 1033.4 hPa Calm     82 % 0.0 mm 63.0 W/m2 BKN
09:26 -1.0 °C -3.8 °C 1033.4 hPa Calm     81 % 0.0 mm 83.0 W/m2 BKN
09:31 -0.7 °C -3.7 °C 1033.4 hPa Calm     80 % 0.0 mm 100.0 W/m2 BKN
09:36 -0.6 °C -3.9 °C 1033.4 hPa Calm     78 % 0.0 mm 95.0 W/m2 BKN
09:41 -0.5 °C -4.1 °C 1033.4 hPa Calm     77 % 0.0 mm 151.0 W/m2 BKN
09:46 -0.4 °C -4.1 °C 1033.7 hPa Calm     76 % 0.0 mm 163.0 W/m2 SCT
09:51 -0.2 °C -3.9 °C 1033.7 hPa Calm     76 % 0.0 mm 132.0 W/m2 SCT
09:56 0.2 °C -3.7 °C 1033.7 hPa Calm     75 % 0.0 mm 171.0 W/m2 SCT
10:01 0.6 °C -3.7 °C 1033.7 hPa Calm     73 % 0.0 mm 185.0 W/m2 SCT
10:06 0.8 °C -3.9 °C 1033.7 hPa Calm     71 % 0.0 mm 109.0 W/m2 SCT
10:11 1.2 °C -3.3 °C 1033.7 hPa Calm     72 % 0.0 mm 216.0 W/m2 SCT
10:16 1.6 °C -3.4 °C 1033.7 hPa Calm     69 % 0.0 mm 121.0 W/m2 BKN
10:21 1.9 °C -3.6 °C 1033.7 hPa Calm     67 % 0.0 mm 239.0 W/m2 SCT
10:26 2.1 °C -3.4 °C 1033.7 hPa Calm     67 % 0.0 mm 225.0 W/m2 SCT
10:31 2.5 °C -3.0 °C 1033.7 hPa Calm     67 % 0.0 mm 264.0 W/m2 SCT
10:36 2.8 °C -3.1 °C 1033.7 hPa Calm     65 % 0.0 mm 274.0 W/m2 SCT
10:41 3.1 °C -3.3 °C 1033.7 hPa Calm     63 % 0.0 mm 285.0 W/m2 SCT
10:46 3.3 °C -3.1 °C 1033.7 hPa Calm     63 % 0.0 mm 294.0 W/m2 FEW
10:51 3.4 °C -2.9 °C 1033.7 hPa Calm     63 % 0.0 mm 306.0 W/m2 FEW
10:56 3.6 °C -3.2 °C 1033.7 hPa Calm     61 % 0.0 mm 315.0 W/m2 FEW
11:01 3.7 °C -2.7 °C 1033.7 hPa Calm     63 % 0.0 mm 323.0 W/m2 FEW
11:06 3.8 °C -2.8 °C 1033.7 hPa Calm     62 % 0.0 mm 332.0 W/m2 FEW
11:11 4.2 °C -2.3 °C 1033.7 hPa Calm     63 % 0.0 mm 343.0 W/m2 FEW
11:16 4.4 °C -2.4 °C 1033.7 hPa Calm     61 % 0.0 mm 350.0 W/m2 FEW
11:21 4.7 °C -2.2 °C 1033.7 hPa Calm     61 % 0.0 mm 359.0 W/m2 FEW
11:26 4.9 °C -2.4 °C 1033.7 hPa Calm     59 % 0.0 mm 366.0 W/m2 FEW
11:31 4.9 °C -2.4 °C 1033.7 hPa Calm     59 % 0.0 mm 373.0 W/m2 FEW
11:36 4.9 °C -2.4 °C 1033.7 hPa Calm     59 % 0.0 mm 381.0 W/m2 FEW
11:41 5.1 °C -2.3 °C 1033.4 hPa Calm     59 % 0.0 mm 387.0 W/m2 FEW
11:46 5.4 °C -2.0 °C 1033.4 hPa Calm     59 % 0.0 mm 394.0 W/m2 FEW
11:52 5.6 °C -2.6 °C 1033.4 hPa Calm     56 % 0.0 mm 401.0 W/m2 FEW
11:57 5.7 °C -2.4 °C 1033.4 hPa Calm     56 % 0.0 mm 406.0 W/m2 CLR
12:02 5.9 °C -2.2 °C 1033.4 hPa Calm     56 % 0.0 mm 411.0 W/m2 CLR
12:07 6.2 °C -2.7 °C 1033.4 hPa Calm     53 % 0.0 mm 415.0 W/m2 CLR
12:12 6.4 °C -2.3 °C 1033.1 hPa Calm     54 % 0.0 mm 422.0 W/m2 CLR
12:17 6.9 °C -2.0 °C 1033.1 hPa Calm     53 % 0.0 mm 429.0 W/m2 CLR
12:22 7.3 °C -2.2 °C 1033.1 hPa Calm     51 % 0.0 mm 432.0 W/m2 CLR
12:27 7.7 °C -1.8 °C 1032.7 hPa Calm     51 % 0.0 mm 436.0 W/m2 CLR
12:32 7.9 °C -1.9 °C 1032.7 hPa Calm     50 % 0.0 mm 436.0 W/m2 CLR
12:37 8.2 °C -1.7 °C 1032.7 hPa Calm     50 % 0.0 mm 441.0 W/m2 CLR
12:42 8.3 °C -2.1 °C 1032.7 hPa Calm     48 % 0.0 mm 443.0 W/m2 CLR
12:47 8.4 °C -2.0 °C 1032.7 hPa Calm     48 % 0.0 mm 445.0 W/m2 CLR
12:52 8.6 °C -2.1 °C 1032.7 hPa Calm     47 % 0.0 mm 448.0 W/m2 CLR
12:57 8.6 °C -2.1 °C 1032.7 hPa Calm     47 % 0.0 mm 448.0 W/m2 CLR
13:02 8.7 °C -2.3 °C 1032.4 hPa Calm     46 % 0.0 mm 452.0 W/m2 CLR
13:07 8.8 °C -2.5 °C 1032.4 hPa Calm     45 % 0.0 mm 452.0 W/m2 CLR
13:12 8.8 °C -1.6 °C 1032.1 hPa Calm     48 % 0.0 mm 450.0 W/m2 CLR
13:17 8.8 °C -2.8 °C 1032.1 hPa Calm     44 % 0.0 mm 452.0 W/m2 CLR
13:22 8.9 °C -3.3 °C 1032.1 hPa Calm     42 % 0.0 mm 450.0 W/m2 CLR
13:27 9.0 °C -4.2 °C 1031.7 hPa Calm     39 % 0.0 mm 448.0 W/m2 CLR
13:32 9.1 °C -4.8 °C 1031.7 hPa Calm     37 % 0.0 mm 448.0 W/m2 CLR
13:37 9.2 °C -4.8 °C 1031.7 hPa Calm     37 % 0.0 mm 446.0 W/m2 CLR
13:42 9.2 °C -5.1 °C 1031.7 hPa Calm     36 % 0.0 mm 436.0 W/m2 CLR
13:47 9.4 °C -5.3 °C 1031.7 hPa Calm     35 % 0.0 mm 436.0 W/m2 CLR
13:52 9.4 °C -5.3 °C 1031.7 hPa Calm     35 % 0.0 mm 422.0 W/m2 CLR
13:57 9.4 °C -5.3 °C 1031.4 hPa Calm     35 % 0.0 mm 427.0 W/m2 CLR
14:02 9.6 °C -5.9 °C 1031.4 hPa Calm     33 % 0.0 mm 427.0 W/m2 CLR
14:07 9.7 °C -5.1 °C 1031.4 hPa Calm     35 % 0.0 mm 425.0 W/m2 CLR
14:12 9.9 °C -5.3 °C 1031.0 hPa Calm     34 % 0.0 mm 418.0 W/m2 CLR
14:17 10.1 °C -4.7 °C 1031.0 hPa Calm     35 % 0.0 mm 410.0 W/m2 CLR
14:22 9.9 °C -4.8 °C 1031.0 hPa Calm     35 % 0.0 mm 403.0 W/m2 CLR
14:27 9.9 °C -4.2 °C 1031.0 hPa Calm     37 % 0.0 mm 406.0 W/m2 CLR
14:32 10.0 °C -5.2 °C 1031.0 hPa Calm     34 % 0.0 mm 401.0 W/m2 CLR
14:37 10.3 °C -4.9 °C 1031.0 hPa Calm     34 % 0.0 mm 388.0 W/m2 CLR
14:42 10.3 °C -4.2 °C 1031.0 hPa Calm     36 % 0.0 mm 385.0 W/m2 CLR
14:47 10.2 °C -4.2 °C 1031.0 hPa Calm     36 % 0.0 mm 373.0 W/m2 CLR
14:52 9.9 °C -2.7 °C 1031.0 hPa Calm     41 % 0.0 mm 371.0 W/m2 CLR
14:57 9.5 °C -1.8 °C 1031.0 hPa Calm     45 % 0.0 mm 364.0 W/m2 CLR
15:02 9.2 °C -2.1 °C 1031.0 hPa Calm     45 % 0.0 mm 355.0 W/m2 CLR
15:07 9.2 °C -1.6 °C 1031.0 hPa Calm     47 % 0.0 mm 346.0 W/m2 CLR
15:12 9.1 °C -1.6 °C 1031.0 hPa Calm     47 % 0.0 mm 338.0 W/m2 CLR
15:17 9.1 °C -1.4 °C 1031.0 hPa Calm     48 % 0.0 mm 327.0 W/m2 CLR
15:22 9.1 °C -1.3 °C 1031.0 hPa Calm     48 % 0.0 mm 315.0 W/m2 CLR
15:27 9.3 °C -0.8 °C 1031.0 hPa Calm     49 % 0.0 mm 306.0 W/m2 CLR
15:32 9.2 °C -1.2 °C 1031.0 hPa Calm     48 % 0.0 mm 297.0 W/m2 CLR
15:37 8.9 °C -1.3 °C 1031.0 hPa Calm     49 % 0.0 mm 287.0 W/m2 CLR
15:42 8.7 °C -1.4 °C 1031.0 hPa Calm     49 % 0.0 mm 274.0 W/m2 CLR
15:47 8.4 °C -2.2 °C 1031.4 hPa Calm     47 % 0.0 mm 260.0 W/m2 CLR
15:52 8.3 °C -2.4 °C 1031.4 hPa Calm     47 % 0.0 mm 248.0 W/m2 CLR
15:57 8.2 °C -2.7 °C 1031.4 hPa Calm     46 % 0.0 mm 236.0 W/m2 CLR
16:02 8.1 °C -2.8 °C 1031.4 hPa Calm     46 % 0.0 mm 221.0 W/m2 CLR
16:07 8.1 °C -3.1 °C 1031.4 hPa Calm     45 % 0.0 mm 204.0 W/m2 CLR
16:13 8.1 °C -3.2 °C 1031.4 hPa Calm     45 % 0.0 mm 190.0 W/m2 CLR
16:18 8.1 °C -2.9 °C 1031.4 hPa Calm     46 % 0.0 mm 176.0 W/m2 CLR
16:23 8.2 °C -2.5 °C 1031.4 hPa Calm     47 % 0.0 mm 162.0 W/m2 CLR
16:28 8.3 °C -2.4 °C 1031.4 hPa Calm     47 % 0.0 mm 146.0 W/m2 CLR
16:33 8.3 °C -2.9 °C 1031.4 hPa Calm     45 % 0.0 mm 132.0 W/m2 CLR
16:38 8.6 °C -2.4 °C 1031.4 hPa Calm     46 % 0.0 mm 118.0 W/m2 CLR
16:43 8.8 °C -2.5 °C 1031.4 hPa Calm     45 % 0.0 mm 105.0 W/m2 CLR
16:48 8.7 °C -3.2 °C 1031.4 hPa Calm     43 % 0.0 mm 90.0 W/m2 CLR
16:53 8.4 °C -3.2 °C 1031.4 hPa Calm     44 % 0.0 mm 79.0 W/m2 CLR
16:58 8.2 °C -3.4 °C 1031.7 hPa Calm     44 % 0.0 mm 62.0 W/m2 CLR
17:03 7.8 °C -4.3 °C 1031.7 hPa Calm     42 % 0.0 mm 56.0 W/m2 OVC
17:08 7.4 °C -4.3 °C 1031.7 hPa Calm     43 % 0.0 mm 40.0 W/m2 OVC
17:13 7.2 °C -4.6 °C 1031.7 hPa Calm     43 % 0.0 mm 30.0 W/m2 OVC
17:18 7.1 °C -4.4 °C 1031.7 hPa Calm     44 % 0.0 mm 23.0 W/m2 OVC
17:23 6.8 °C -4.3 °C 1031.7 hPa Calm     45 % 0.0 mm 18.0 W/m2 OVC
17:28 6.6 °C -4.3 °C 1031.7 hPa Calm     46 % 0.0 mm 14.0 W/m2 OVC
17:33 6.3 °C -4.2 °C 1032.1 hPa Calm     47 % 0.0 mm 12.0 W/m2 OVC
17:38 5.9 °C -4.3 °C 1032.1 hPa Calm     48 % 0.0 mm 12.0 W/m2 OVC
17:43 5.7 °C -4.2 °C 1032.1 hPa Calm     49 % 0.0 mm 9.0 W/m2 OVC
17:48 5.4 °C -4.4 °C 1032.1 hPa Calm     49 % 0.0 mm 5.0 W/m2 OVC
17:53 5.3 °C -4.6 °C 1032.1 hPa Calm     49 % 0.0 mm 0.0 W/m2 CLR
17:58 5.2 °C -4.7 °C 1032.4 hPa Calm     49 % 0.0 mm 0.0 W/m2 CLR
18:03 5.1 °C -4.5 °C 1032.4 hPa Calm     50 % 0.0 mm 0.0 W/m2 CLR
18:08 4.8 °C -4.2 °C 1032.4 hPa Calm     52 % 0.0 mm 0.0 W/m2 CLR
18:13 4.6 °C -4.4 °C 1032.4 hPa Calm     52 % 0.0 mm 0.0 W/m2 CLR
18:18 4.3 °C -4.2 °C 1032.4 hPa Calm     54 % 0.0 mm 0.0 W/m2 CLR
18:23 4.0 °C -4.5 °C 1032.4 hPa Calm     54 % 0.0 mm 0.0 W/m2 CLR
18:28 3.8 °C -4.2 °C 1032.4 hPa Calm     56 % 0.0 mm 0.0 W/m2 CLR
18:33 3.5 °C -4.0 °C 1032.4 hPa Calm     58 % 0.0 mm 0.0 W/m2 CLR
18:38 3.3 °C -4.2 °C 1032.4 hPa Calm     58 % 0.0 mm 0.0 W/m2 CLR
18:43 3.1 °C -3.9 °C 1032.7 hPa Calm     60 % 0.0 mm 0.0 W/m2 CLR
18:48 2.8 °C -3.7 °C 1032.7 hPa Calm     62 % 0.0 mm 0.0 W/m2 CLR
18:53 2.4 °C -3.7 °C 1032.7 hPa Calm     64 % 0.0 mm 0.0 W/m2 CLR
18:58 2.2 °C -3.9 °C 1032.7 hPa Calm     64 % 0.0 mm 0.0 W/m2 CLR
19:03 2.0 °C -3.7 °C 1032.7 hPa Calm     66 % 0.0 mm 0.0 W/m2 CLR
19:08 1.8 °C -3.7 °C 1032.7 hPa Calm     67 % 0.0 mm 0.0 W/m2 CLR
19:13 1.6 °C -3.9 °C 1033.1 hPa Calm     67 % 0.0 mm 0.0 W/m2 CLR
19:18 1.3 °C -3.9 °C 1033.1 hPa Calm     68 % 0.0 mm 0.0 W/m2 CLR
19:23 1.1 °C -4.0 °C 1033.1 hPa Calm     69 % 0.0 mm 0.0 W/m2 CLR
19:28 0.8 °C -4.0 °C 1033.1 hPa Calm     70 % 0.0 mm 0.0 W/m2 CLR
19:33 0.7 °C -3.9 °C 1033.1 hPa Calm     71 % 0.0 mm 0.0 W/m2 CLR
19:38 0.5 °C -3.9 °C 1033.1 hPa Calm     72 % 0.0 mm 0.0 W/m2 CLR
19:43 0.4 °C -3.9 °C 1033.4 hPa Calm     73 % 0.0 mm 0.0 W/m2 CLR
19:48 0.2 °C -4.1 °C 1033.4 hPa Calm     73 % 0.0 mm 0.0 W/m2 CLR
19:53 0.1 °C -4.0 °C 1033.4 hPa Calm     74 % 0.0 mm 0.0 W/m2 CLR
19:58 0.0 °C -3.9 °C 1033.4 hPa Calm     75 % 0.0 mm 0.0 W/m2 CLR
20:03 -0.1 °C -3.9 °C 1033.4 hPa Calm     75 % 0.0 mm 0.0 W/m2 CLR
20:08 -0.2 °C -4.1 °C 1033.4 hPa Calm     75 % 0.0 mm 0.0 W/m2 CLR
20:13 -0.4 °C -4.2 °C 1033.4 hPa Calm     76 % 0.0 mm 0.0 W/m2 CLR
20:18 -0.6 °C -4.2 °C 1033.7 hPa Calm     77 % 0.0 mm 0.0 W/m2 CLR
20:23 -0.7 °C -4.1 °C 1033.7 hPa Calm     78 % 0.0 mm 0.0 W/m2 CLR
20:28 -0.8 °C -4.2 °C 1033.7 hPa Calm     78 % 0.0 mm 0.0 W/m2 CLR
20:33 -0.9 °C -4.2 °C 1033.7 hPa Calm     78 % 0.0 mm 0.0 W/m2 CLR
20:38 -0.9 °C -4.1 °C 1033.7 hPa Calm     79 % 0.0 mm 0.0 W/m2 CLR
20:43 -1.1 °C -4.2 °C 1033.7 hPa Calm     79 % 0.0 mm 0.0 W/m2 CLR
20:48 -1.1 °C -4.1 °C 1033.7 hPa Calm     80 % 0.0 mm 0.0 W/m2 CLR
20:53 -1.1 °C -4.2 °C 1033.7 hPa Calm     79 % 0.0 mm 0.0 W/m2 CLR
20:58 -1.1 °C -4.3 °C 1033.7 hPa Calm     79 % 0.0 mm 0.0 W/m2 CLR
21:03 -1.2 °C -4.2 °C 1033.7 hPa Calm     80 % 0.0 mm 0.0 W/m2 CLR
21:08 -1.3 °C -4.3 °C 1033.7 hPa Calm     80 % 0.0 mm 0.0 W/m2 CLR
21:13 -1.4 °C -4.4 °C 1033.7 hPa Calm     80 % 0.0 mm 0.0 W/m2 CLR
21:18 -1.4 °C -4.4 °C 1033.7 hPa Calm     80 % 0.0 mm 0.0 W/m2 CLR
21:23 -1.4 °C -4.3 °C 1033.7 hPa Calm     81 % 0.0 mm 0.0 W/m2 CLR
21:28 -1.5 °C -4.3 °C 1034.1 hPa Calm     81 % 0.0 mm 0.0 W/m2 CLR
21:33 -1.6 °C -4.4 °C 1034.1 hPa Calm     81 % 0.0 mm 0.0 W/m2 CLR
21:38 -1.6 °C -4.4 °C 1034.1 hPa Calm     81 % 0.0 mm 0.0 W/m2 CLR
21:44 -1.6 °C -4.4 °C 1033.7 hPa Calm     81 % 0.0 mm 0.0 W/m2 CLR
21:49 -1.6 °C -4.4 °C 1033.7 hPa Calm     81 % 0.0 mm 0.0 W/m2 CLR
21:54 -1.6 °C -4.4 °C 1033.7 hPa Calm     81 % 0.0 mm 0.0 W/m2 CLR
21:59 -1.6 °C -4.4 °C 1033.7 hPa Calm     81 % 0.0 mm 0.0 W/m2 CLR
22:04 -1.5 °C -4.3 °C 1033.7 hPa Calm     81 % 0.0 mm 0.0 W/m2 CLR
22:09 -1.5 °C -4.3 °C 1033.7 hPa Calm     81 % 0.0 mm 0.0 W/m2 CLR
22:14 -1.4 °C -4.3 °C 1033.7 hPa Calm     81 % 0.0 mm 0.0 W/m2 CLR
22:19 -1.6 °C -4.4 °C 1033.7 hPa Calm     81 % 0.0 mm 0.0 W/m2 CLR
22:24 -1.5 °C -4.5 °C 1033.7 hPa Calm     80 % 0.0 mm 0.0 W/m2 CLR
22:29 -1.5 °C -4.5 °C 1033.7 hPa Calm     80 % 0.0 mm 0.0 W/m2 CLR
22:34 -1.4 °C -4.6 °C 1033.7 hPa Calm     79 % 0.0 mm 0.0 W/m2 CLR
22:39 -1.4 °C -4.6 °C 1033.7 hPa Calm     79 % 0.0 mm 0.0 W/m2 CLR
22:44 -1.4 °C -4.6 °C 1033.7 hPa Calm     79 % 0.0 mm 0.0 W/m2 CLR
22:49 -1.4 °C -4.6 °C 1033.7 hPa Calm     79 % 0.0 mm 0.0 W/m2 CLR
22:54 -1.4 °C -4.6 °C 1034.1 hPa Calm     79 % 0.0 mm 0.0 W/m2 CLR
22:59 -1.4 °C -4.6 °C 1033.7 hPa Calm     79 % 0.0 mm 0.0 W/m2 CLR
23:04 -1.4 °C -4.6 °C 1033.7 hPa Calm     79 % 0.0 mm 0.0 W/m2 CLR
23:09 -1.6 °C -4.6 °C 1033.7 hPa Calm     80 % 0.0 mm 0.0 W/m2 CLR
23:14 -1.7 °C -4.7 °C 1033.7 hPa Calm     80 % 0.0 mm 0.0 W/m2 CLR
23:19 -1.8 °C -4.6 °C 1033.7 hPa Calm     81 % 0.0 mm 0.0 W/m2 CLR
23:24 -1.8 °C -4.7 °C 1033.7 hPa Calm     81 % 0.0 mm 0.0 W/m2 CLR
23:29 -1.9 °C -4.8 °C 1033.7 hPa Calm     81 % 0.0 mm 0.0 W/m2 CLR
23:34 -2.0 °C -4.7 °C 1033.7 hPa Calm     82 % 0.0 mm 0.0 W/m2 CLR
23:39 -2.1 °C -4.7 °C 1033.7 hPa Calm     82 % 0.0 mm 0.0 W/m2 CLR
23:44 -2.1 °C -4.7 °C 1034.1 hPa Calm     82 % 0.0 mm 0.0 W/m2 CLR
23:49 -2.0 °C -4.8 °C 1034.1 hPa Calm     81 % 0.0 mm 0.0 W/m2 CLR
23:54 -2.1 °C -4.9 °C 1034.1 hPa Calm     81 % 0.0 mm 0.0 W/m2 CLR
23:59 -2.1 °C -4.9 °C 1034.1 hPa Calm     81 % 0.0 mm 0.0 W/m2 CLR
Lo Temps de Massalio
Compliments of Weather Underground - 1.25 mb